Time,TemperatureF,DewpointF,PressureIn,WindDirection,WindDirectionDegrees,WindSpeedMPH,WindSpeedGustMPH,Humidity,HourlyPrecipIn,Conditions,Clouds,dailyrainin,SoftwareType,DateUTC
2013-06-25 00:01:00,71.0,69.0,29.89,South,179,0.0,4.0,94,0.00,,,0.00,,2013-06-25 05:01:00,
2013-06-25 00:11:00,71.0,69.0,29.89,South,179,0.0,4.0,94,0.00,,,0.00,,2013-06-25 05:11:00,
2013-06-25 00:22:00,70.0,68.0,29.88,South,189,0.0,6.0,95,0.00,,,0.00,,2013-06-25 05:22:00,
2013-06-25 00:32:00,70.0,69.0,29.88,South,181,0.0,4.0,96,0.00,,,0.00,,2013-06-25 05:32:00,
2013-06-25 00:44:00,70.0,69.0,29.88,South,181,0.0,4.0,96,0.00,,,0.00,,2013-06-25 05:44:00,
2013-06-25 00:52:00,70.0,69.0,29.88,South,181,0.0,4.0,96,0.00,,,0.00,,2013-06-25 05:52:00,
2013-06-25 01:01:00,70.0,69.0,29.88,South,181,0.0,4.0,96,0.00,,,0.00,,2013-06-25 06:01:00,
2013-06-25 01:11:00,70.0,69.0,29.88,South,181,0.0,4.0,96,0.00,,,0.00,,2013-06-25 06:11:00,
2013-06-25 01:22:00,69.0,68.0,29.88,SSW,208,2.0,4.0,96,0.00,,,0.00,,2013-06-25 06:22:00,
2013-06-25 01:34:00,69.0,68.0,29.88,SW,217,0.0,4.0,96,0.00,,,0.00,,2013-06-25 06:34:00,
2013-06-25 01:43:00,69.0,68.0,29.88,SW,217,0.0,4.0,96,0.00,,,0.00,,2013-06-25 06:43:00,
2013-06-25 01:52:00,69.0,68.0,29.87,NW,315,1.0,2.0,95,0.00,,,0.00,,2013-06-25 06:52:00,
2013-06-25 02:02:00,69.0,68.0,29.87,NW,315,1.0,2.0,95,0.00,,,0.00,,2013-06-25 07:02:00,
2013-06-25 02:11:00,69.0,68.0,29.87,NW,315,1.0,2.0,95,0.00,,,0.00,,2013-06-25 07:11:00,
2013-06-25 02:22:00,69.0,68.0,29.84,NNE,30,2.0,4.0,97,0.01,,,0.01,,2013-06-25 07:22:00,
2013-06-25 02:33:00,69.0,68.0,29.85,NW,321,3.0,6.0,97,0.01,,,0.01,,2013-06-25 07:33:00,
2013-06-25 02:43:00,69.0,68.0,29.85,NW,321,3.0,6.0,97,0.01,,,0.01,,2013-06-25 07:43:00,
2013-06-25 02:52:00,68.0,68.0,29.91,West,270,8.0,18.0,99,0.01,,,0.01,,2013-06-25 07:52:00,
2013-06-25 03:01:00,68.0,68.0,29.91,West,270,8.0,18.0,99,0.01,,,0.01,,2013-06-25 08:01:00,
2013-06-25 03:11:00,68.0,68.0,29.91,West,270,8.0,18.0,99,0.01,,,0.01,,2013-06-25 08:11:00,
2013-06-25 03:21:00,67.0,67.0,29.89,WSW,240,1.0,6.0,99,0.00,,,0.01,,2013-06-25 08:21:00,
2013-06-25 03:34:00,67.0,67.0,29.89,WSW,240,1.0,6.0,99,0.00,,,0.01,,2013-06-25 08:34:00,
2013-06-25 03:43:00,67.0,67.0,29.89,West,259,1.0,3.0,99,0.00,,,0.01,,2013-06-25 08:43:00,
2013-06-25 03:53:00,67.0,67.0,29.89,West,259,1.0,3.0,99,0.00,,,0.01,,2013-06-25 08:53:00,
2013-06-25 04:02:00,67.0,67.0,29.87,WSW,246,0.0,6.0,99,0.00,,,0.01,,2013-06-25 09:02:00,
2013-06-25 04:12:00,67.0,67.0,29.87,WSW,246,0.0,6.0,99,0.00,,,0.01,,2013-06-25 09:12:00,
2013-06-25 04:22:00,67.0,67.0,29.87,WSW,246,0.0,6.0,99,0.00,,,0.01,,2013-06-25 09:22:00,
2013-06-25 04:30:00,68.0,68.0,29.86,SE,143,2.0,4.0,99,0.00,,,0.01,,2013-06-25 09:30:00,
2013-06-25 04:33:00,68.0,68.0,29.87,SSW,198,0.0,2.0,99,0.00,,,0.01,,2013-06-25 09:33:00,
2013-06-25 04:43:00,68.0,68.0,29.87,SSW,198,0.0,2.0,99,0.00,,,0.01,,2013-06-25 09:43:00,
2013-06-25 04:53:00,68.0,68.0,29.86,SE,143,2.0,4.0,99,0.00,,,0.01,,2013-06-25 09:53:00,
2013-06-25 05:01:00,68.0,68.0,29.86,SE,143,2.0,4.0,99,0.00,,,0.01,,2013-06-25 10:01:00,
2013-06-25 05:11:00,68.0,68.0,29.86,SE,143,2.0,4.0,99,0.00,,,0.01,,2013-06-25 10:11:00,
2013-06-25 05:21:00,68.0,68.0,29.86,SE,143,2.0,4.0,99,0.00,,,0.01,,2013-06-25 10:21:00,
2013-06-25 05:33:00,67.0,65.0,29.90,WSW,248,1.0,6.0,94,0.00,,,0.01,,2013-06-25 10:33:00,
2013-06-25 05:52:00,67.0,65.0,29.90,WSW,248,1.0,6.0,94,0.00,,,0.01,,2013-06-25 10:52:00,
2013-06-25 06:02:00,67.0,65.0,29.90,WSW,248,1.0,6.0,94,0.00,,,0.01,,2013-06-25 11:02:00,
2013-06-25 06:12:00,67.0,65.0,29.90,WSW,248,1.0,6.0,94,0.00,,,0.01,,2013-06-25 11:12:00,
2013-06-25 06:22:00,67.0,65.0,29.90,WSW,248,1.0,6.0,94,0.00,,,0.01,,2013-06-25 11:22:00,
2013-06-25 06:43:00,67.0,64.0,29.85,SSE,155,0.0,2.0,90,0.00,,,0.01,,2013-06-25 11:43:00,
2013-06-25 06:52:00,67.0,64.0,29.84,South,178,1.0,2.0,89,0.00,,,0.01,,2013-06-25 11:52:00,
2013-06-25 07:02:00,67.0,64.0,29.84,South,178,1.0,2.0,89,0.00,,,0.01,,2013-06-25 12:02:00,
2013-06-25 07:11:00,68.0,64.0,29.84,South,186,0.0,2.0,88,0.00,,,0.01,,2013-06-25 12:11:00,
2013-06-25 07:22:00,68.0,64.0,29.84,SSW,200,0.0,1.0,88,0.00,,,0.01,,2013-06-25 12:22:00,
2013-06-25 07:33:00,68.0,64.0,29.84,South,181,0.0,1.0,86,0.00,,,0.01,,2013-06-25 12:33:00,
2013-06-25 07:43:00,68.0,63.0,29.83,South,169,1.0,2.0,85,0.00,,,0.01,,2013-06-25 12:43:00,
2013-06-25 07:55:00,68.0,63.0,29.82,South,189,1.0,2.0,85,0.00,,,0.01,,2013-06-25 12:55:00,
2013-06-25 08:02:00,68.0,63.0,29.83,South,172,1.0,5.0,85,0.00,,,0.01,,2013-06-25 13:02:00,
2013-06-25 08:11:00,68.0,63.0,29.83,South,172,1.0,5.0,85,0.00,,,0.01,,2013-06-25 13:11:00,
2013-06-25 08:22:00,68.0,63.0,29.83,South,172,1.0,5.0,85,0.00,,,0.01,,2013-06-25 13:22:00,
2013-06-25 08:34:00,68.0,67.0,29.85,South,183,2.0,4.0,95,0.01,,,0.02,,2013-06-25 13:34:00,
2013-06-25 08:42:00,68.0,67.0,29.85,South,183,2.0,4.0,95,0.01,,,0.02,,2013-06-25 13:42:00,
2013-06-25 08:53:00,68.0,67.0,29.85,South,183,2.0,4.0,95,0.01,,,0.02,,2013-06-25 13:53:00,
2013-06-25 09:01:00,69.0,67.0,29.88,South,187,0.0,3.0,92,0.01,,,0.02,,2013-06-25 14:01:00,
2013-06-25 09:11:00,69.0,67.0,29.88,South,176,0.0,2.0,93,0.00,,,0.02,,2013-06-25 14:11:00,
2013-06-25 09:23:00,68.0,66.0,29.90,South,189,2.0,17.0,92,0.13,,,0.15,,2013-06-25 14:23:00,
2013-06-25 09:34:00,68.0,66.0,29.90,South,189,2.0,17.0,92,0.13,,,0.15,,2013-06-25 14:34:00,
2013-06-25 09:43:00,66.0,64.0,29.90,SSW,209,2.0,11.0,92,0.13,,,0.15,,2013-06-25 14:43:00,
2013-06-25 09:53:00,66.0,64.0,29.89,SW,231,3.0,7.0,92,0.13,,,0.15,,2013-06-25 14:53:00,
2013-06-25 10:02:00,66.0,64.0,29.90,SSW,195,0.0,8.0,93,0.13,,,0.15,,2013-06-25 15:02:00,
2013-06-25 10:11:00,66.0,64.0,29.90,SSW,195,0.0,8.0,93,0.13,,,0.15,,2013-06-25 15:11:00,
2013-06-25 10:22:00,66.0,64.0,29.90,SSW,195,0.0,8.0,93,0.13,,,0.15,,2013-06-25 15:22:00,
2013-06-25 10:32:00,66.0,64.0,29.90,SSW,195,0.0,8.0,93,0.13,,,0.15,,2013-06-25 15:32:00,
2013-06-25 10:44:00,66.0,64.0,29.90,SSW,195,0.0,8.0,93,0.13,,,0.15,,2013-06-25 15:44:00,
2013-06-25 10:53:00,67.0,66.0,29.86,SSE,150,1.0,3.0,95,0.01,,,0.17,,2013-06-25 15:53:00,
2013-06-25 11:03:00,67.0,66.0,29.85,SW,236,0.0,3.0,95,0.01,,,0.17,,2013-06-25 16:03:00,
2013-06-25 11:12:00,67.0,66.0,29.85,ENE,77,0.0,2.0,95,0.01,,,0.17,,2013-06-25 16:12:00,
2013-06-25 11:23:00,68.0,66.0,29.85,NE,34,0.0,2.0,94,0.01,,,0.17,,2013-06-25 16:23:00,
2013-06-25 11:35:00,68.0,66.0,29.85,NE,34,0.0,2.0,94,0.01,,,0.17,,2013-06-25 16:35:00,
2013-06-25 11:44:00,68.0,66.0,29.85,NE,34,0.0,2.0,94,0.01,,,0.17,,2013-06-25 16:44:00,
2013-06-25 11:52:00,68.0,66.0,29.85,NE,34,0.0,2.0,94,0.01,,,0.17,,2013-06-25 16:52:00,
2013-06-25 12:01:00,71.0,69.0,29.86,SE,135,0.0,3.0,95,0.00,,,0.17,,2013-06-25 17:01:00,
2013-06-25 12:11:00,72.0,70.0,29.86,SE,135,0.0,2.0,94,0.00,,,0.17,,2013-06-25 17:11:00,
2013-06-25 12:22:00,73.0,71.0,29.85,SE,139,0.0,2.0,93,0.00,,,0.17,,2013-06-25 17:22:00,
2013-06-25 12:33:00,73.0,71.0,29.85,SE,139,0.0,2.0,93,0.00,,,0.17,,2013-06-25 17:33:00,
2013-06-25 12:44:00,73.0,71.0,29.85,SE,139,0.0,2.0,93,0.00,,,0.17,,2013-06-25 17:44:00,
2013-06-25 12:53:00,75.0,71.0,29.85,SSW,192,0.0,4.0,88,0.00,,,0.17,,2013-06-25 17:53:00,
2013-06-25 13:02:00,74.0,69.0,29.86,South,191,1.0,8.0,84,0.00,,,0.17,,2013-06-25 18:02:00,
2013-06-25 13:12:00,74.0,70.0,29.85,SSW,198,4.0,8.0,88,0.00,,,0.17,,2013-06-25 18:12:00,
2013-06-25 13:22:00,75.0,72.0,29.85,SSW,213,2.0,9.0,89,0.00,,,0.17,,2013-06-25 18:22:00,
2013-06-25 13:34:00,75.0,72.0,29.85,SSW,213,2.0,9.0,89,0.00,,,0.17,,2013-06-25 18:34:00,
2013-06-25 13:44:00,77.0,71.0,29.83,South,186,4.0,9.0,83,0.00,,,0.17,,2013-06-25 18:44:00,
2013-06-25 13:52:00,77.0,72.0,29.83,SW,221,2.0,10.0,84,0.00,,,0.17,,2013-06-25 18:52:00,
2013-06-25 14:01:00,78.0,73.0,29.83,SSW,211,1.0,10.0,84,0.00,,,0.17,,2013-06-25 19:01:00,
2013-06-25 14:12:00,78.0,73.0,29.83,SSW,211,1.0,10.0,84,0.00,,,0.17,,2013-06-25 19:12:00,
2013-06-25 14:22:00,79.0,71.0,29.83,SSW,200,4.0,11.0,77,0.00,,,0.17,,2013-06-25 19:22:00,
2013-06-25 14:33:00,80.0,70.0,29.83,SSW,209,8.0,11.0,72,0.00,,,0.17,,2013-06-25 19:33:00,
2013-06-25 14:44:00,80.0,70.0,29.83,SSW,201,4.0,13.0,72,0.00,,,0.17,,2013-06-25 19:44:00,
2013-06-25 14:54:00,82.0,71.0,29.83,SSW,201,2.0,9.0,70,0.00,,,0.17,,2013-06-25 19:54:00,
2013-06-25 15:02:00,82.0,71.0,29.83,SSW,201,2.0,9.0,70,0.00,,,0.17,,2013-06-25 20:02:00,
2013-06-25 15:11:00,82.0,71.0,29.83,SSW,201,2.0,9.0,70,0.00,,,0.17,,2013-06-25 20:11:00,
2013-06-25 15:22:00,81.0,71.0,29.82,SSW,210,3.0,11.0,71,0.00,,,0.17,,2013-06-25 20:22:00,
2013-06-25 15:33:00,81.0,72.0,29.82,SW,217,4.0,10.0,73,0.00,,,0.17,,2013-06-25 20:33:00,
2013-06-25 15:43:00,81.0,72.0,29.82,SSW,212,4.0,8.0,73,0.00,,,0.17,,2013-06-25 20:43:00,
2013-06-25 15:52:00,81.0,72.0,29.82,SW,234,3.0,8.0,73,0.00,,,0.17,,2013-06-25 20:52:00,
2013-06-25 16:01:00,82.0,72.0,29.82,SW,225,2.0,7.0,72,0.00,,,0.17,,2013-06-25 21:01:00,
2013-06-25 16:11:00,82.0,72.0,29.81,SW,216,4.0,7.0,72,0.00,,,0.17,,2013-06-25 21:11:00,
2013-06-25 16:22:00,81.0,72.0,29.81,SW,236,2.0,8.0,74,0.00,,,0.17,,2013-06-25 21:22:00,
2013-06-25 16:34:00,82.0,72.0,29.81,West,262,4.0,7.0,72,0.00,,,0.17,,2013-06-25 21:34:00,
2013-06-25 16:43:00,82.0,72.0,29.81,West,262,4.0,7.0,72,0.00,,,0.17,,2013-06-25 21:43:00,
2013-06-25 16:53:00,83.0,74.0,29.80,WSW,251,0.0,5.0,74,0.00,,,0.17,,2013-06-25 21:53:00,
2013-06-25 17:01:00,83.0,74.0,29.80,WSW,251,0.0,5.0,74,0.00,,,0.17,,2013-06-25 22:01:00,
2013-06-25 17:11:00,90.0,75.0,29.79,West,274,0.0,3.0,62,0.00,,,0.17,,2013-06-25 22:11:00,
2013-06-25 17:22:00,88.0,73.0,29.79,WSW,254,1.0,2.0,61,0.00,,,0.17,,2013-06-25 22:22:00,
2013-06-25 17:34:00,86.0,72.0,29.79,WSW,251,0.0,4.0,64,0.00,,,0.17,,2013-06-25 22:34:00,
2013-06-25 17:42:00,84.0,72.0,29.79,West,268,1.0,3.0,67,0.00,,,0.17,,2013-06-25 22:42:00,
2013-06-25 17:52:00,84.0,72.0,29.79,West,268,1.0,3.0,67,0.00,,,0.17,,2013-06-25 22:52:00,
2013-06-25 18:11:00,90.0,72.0,29.79,NW,310,0.0,3.0,56,0.00,,,0.17,,2013-06-25 23:11:00,
2013-06-25 18:22:00,84.0,72.0,29.79,WSW,256,0.0,2.0,68,0.00,,,0.17,,2013-06-25 23:22:00,
2013-06-25 18:34:00,82.0,73.0,29.80,SSW,212,2.0,4.0,74,0.00,,,0.17,,2013-06-25 23:34:00,
2013-06-25 18:43:00,82.0,73.0,29.80,SSW,212,2.0,4.0,74,0.00,,,0.17,,2013-06-25 23:43:00,
2013-06-25 18:52:00,81.0,73.0,29.80,South,181,0.0,2.0,77,0.00,,,0.17,,2013-06-25 23:52:00,
2013-06-25 19:02:00,80.0,72.0,29.80,North,0,0.0,0.0,78,0.00,,,0.17,,2013-06-26 00:02:00,
2013-06-25 19:11:00,80.0,73.0,29.80,North,0,0.0,0.0,79,0.00,,,0.17,,2013-06-26 00:11:00,
2013-06-25 19:22:00,79.0,73.0,29.79,South,172,0.0,1.0,81,0.00,,,0.17,,2013-06-26 00:22:00,
2013-06-25 19:33:00,79.0,73.0,29.79,ESE,120,0.0,2.0,83,0.00,,,0.17,,2013-06-26 00:33:00,
2013-06-25 19:42:00,79.0,73.0,29.79,ESE,120,0.0,2.0,83,0.00,,,0.17,,2013-06-26 00:42:00,
2013-06-25 19:52:00,78.0,72.0,29.79,East,83,1.0,3.0,82,0.00,,,0.17,,2013-06-26 00:52:00,
2013-06-25 20:01:00,78.0,72.0,29.79,East,83,1.0,3.0,82,0.00,,,0.17,,2013-06-26 01:01:00,
2013-06-25 20:11:00,76.0,70.0,29.79,ENE,72,1.0,4.0,83,0.00,,,0.17,,2013-06-26 01:11:00,
2013-06-25 20:22:00,76.0,70.0,29.79,ENE,72,1.0,4.0,83,0.00,,,0.17,,2013-06-26 01:22:00,
2013-06-25 20:33:00,76.0,70.0,29.79,ENE,72,1.0,4.0,83,0.00,,,0.17,,2013-06-26 01:33:00,
2013-06-25 20:43:00,74.0,69.0,29.79,ENE,61,1.0,4.0,84,0.00,,,0.17,,2013-06-26 01:43:00,
2013-06-25 20:53:00,74.0,69.0,29.79,ENE,61,1.0,4.0,84,0.00,,,0.17,,2013-06-26 01:53:00,
2013-06-25 21:02:00,74.0,69.0,29.79,ENE,61,1.0,4.0,84,0.00,,,0.17,,2013-06-26 02:02:00,
2013-06-25 21:11:00,73.0,68.0,29.79,ENE,70,1.0,2.0,85,0.00,,,0.17,,2013-06-26 02:11:00,
2013-06-25 21:22:00,72.0,68.0,29.79,East,92,0.0,2.0,87,0.00,,,0.17,,2013-06-26 02:22:00,
2013-06-25 21:34:00,72.0,69.0,29.79,ESE,116,2.0,3.0,89,0.00,,,0.17,,2013-06-26 02:34:00,
2013-06-25 21:43:00,72.0,69.0,29.79,ESE,116,2.0,3.0,89,0.00,,,0.17,,2013-06-26 02:43:00,
2013-06-25 21:53:00,72.0,69.0,29.79,ESE,116,2.0,3.0,89,0.00,,,0.17,,2013-06-26 02:53:00,
2013-06-25 22:02:00,71.0,68.0,29.80,SE,132,2.0,4.0,90,0.00,,,0.17,,2013-06-26 03:02:00,
2013-06-25 22:11:00,71.0,68.0,29.80,SE,125,2.0,4.0,91,0.00,,,0.17,,2013-06-26 03:11:00,
2013-06-25 22:22:00,71.0,69.0,29.80,SE,136,1.0,4.0,92,0.00,,,0.17,,2013-06-26 03:22:00,
2013-06-25 22:33:00,71.0,69.0,29.80,SE,140,0.0,3.0,92,0.00,,,0.17,,2013-06-26 03:33:00,
2013-06-25 22:43:00,71.0,69.0,29.80,SE,140,0.0,3.0,92,0.00,,,0.17,,2013-06-26 03:43:00,
2013-06-25 22:52:00,71.0,69.0,29.80,SE,140,0.0,3.0,93,0.00,,,0.17,,2013-06-26 03:52:00,
2013-06-25 23:01:00,71.0,69.0,29.80,SE,142,1.0,3.0,94,0.00,,,0.17,,2013-06-26 04:01:00,
2013-06-25 23:12:00,71.0,69.0,29.80,SE,135,1.0,4.0,94,0.00,,,0.17,,2013-06-26 04:12:00,
2013-06-25 23:22:00,71.0,69.0,29.80,SE,135,1.0,4.0,94,0.00,,,0.17,,2013-06-26 04:22:00,
2013-06-25 23:33:00,71.0,69.0,29.80,SE,135,0.0,2.0,93,0.00,,,0.17,,2013-06-26 04:33:00,
2013-06-25 23:43:00,71.0,69.0,29.80,SE,135,0.0,2.0,93,0.00,,,0.17,,2013-06-26 04:43:00,
2013-06-25 23:53:00,70.0,68.0,29.80,South,173,1.0,2.0,93,0.00,,,0.17,,2013-06-26 04:53:00,